Language selection

Features

My Weather Profile Weather Topics  | 

Pacific - North Coast: Past 24 Hour Conditions

 

West Sea Otter - 46204

01:00 AM PDT 21 October 2019Buoy position: 51.23N 128.46W
Disclaimer

This table is a summary of hourly weather conditions for the past 24 hours.
Please note that these observations might not always be representative of weather conditions over their associated marine area.

Date / Time
(PDT)
Wind(knots) Wave height(m) Wave period(s) Pressure(kPa) Air tempC) Water tempC)
21 October 2019
1:00 S 13 gust 16 4.6 12.0 101.1 11 11
0:00 S 16 gust 22 4.3 12.0 101.1 11 11
20 October 2019
23:00 S 13 gust 16 4.1 11.0 101.1 11 11
22:00 S 12 gust 13 3.6 10.0 101.0 11 11
21:00 SW 10 gust 13 3.1 10.0 101.0 11 11
20:00 SW 12 gust 16 3.1 10.0 100.9 11 11
19:00 S 13 gust 17 3.0 8.0 100.8 11 11
18:00 S 10 gust 12 2.7 10.0 100.8 11 11
17:00 S 12 gust 16 2.9 9.0 100.8 11 11
16:00 SSW 12 gust 13 2.5 8.0 100.7 11 11
15:00 S 8 gust 12 2.7 8.0 100.7 11 11
14:00 S 13 gust 19 2.7 8.0 100.6 11 11
13:00 SSW 16 gust 17 2.7 8.0 100.6 11 11
12:00 SSW 12 gust 13 2.8 8.0 100.6 11 11
11:00 SSW 16 gust 19 3.1 7.0 100.5 11 11
10:00 SW 10 gust 13 3.6 7.0 100.5 11 11
9:00 SSE 12 gust 16 3.4 8.0 100.4 10 11
8:00 ESE 23 gust 29 3.8 7.0 100.4 9 11
7:00 N/A N/A N/A N/A N/A N/A
6:00 ESE 31 gust 41 3.5 6.0 100.2 9 11
5:00 SE 31 gust 39 3.3 6.0 100.4 9 11
4:00 SE 25 N/A N/A N/A N/A N/A
3:00 SE 25 gust 31 3.0 14.0 100.7 10 11
2:00 SE 23 gust 27 3.0 12.0 100.8 10 11
1:00 SSE 22 gust 25 3.2 14.0 100.9 11 11

Zoom-in to make a selection

Map of Pacific - North Coast marine weather areas Middle Nomad - 46004 South Nomad - 46036 Dixon Entrance Central - 46145 South Moresby - 46147 Nanakwa Shoal - 46181 North Hecate Strait - 46183 North Nomad - 46184 South Hecate Strait - 46185 West Sea Otter - 46204 West Dixon Entrance - 46205 East Dellwood - 46207 West Moresby - 46208 Sartine Island Cape St.James Kindakun Rocks Langara Island Masset Municipal Airport Rose Spit Sandspit Airport Bella Bella Airport Bella Coola Airport Bonilla Island Cathedral Point Cumshewa Island Grey Islet Holland Rock Lucy Islands Lightstation Prince Rupert Airport
Legend:
buoy Buoy
land station Land Station

Pacific - North Coast Area

Another Region

What we are doing

Date modified: